Prudhoe Bay, AK

8:06 AM AKST op 17 januari 2017 (GMT -0900)
Ugnu Kuparuk | | Change Station

Hoogte 66 ft 70.33 °N, 149.60 °W | Updated 21 minutes ago

Sneeuw
Sneeuw
-17 °F
Voelt als -31 °F
N
6
Wind Variabel Wind van NNO

Vandaag
Hoog -- | Laag -- °F
--% Kans op neerslag
Gisteren
Hoog -- | Laag -- °F
Precip. -- inches
Druk 29.56 inches
Zicht 7.0 mijlen
Wolken Licht bewolkt 3300 ft
Merendeels bewolkt 4700 ft
Geheel bewolkt 7000 ft
Gevoelstemperatuur -31 °F
Dauwpunt -20 °F
Vochtigheid 84%
Neerslag 0.00 inches
Dikte sneeuw Niet beschikbaar.
12:36 PM 1:41 PM
Afnemende maan, 71% visible
METAR PAKU 171645Z 03005KT 7SM R06/P6000FT -SN SCT033 BKN047 OVC070 M27/M29 A2956
Druk 29.56 inches
Zicht 7.0 mijlen
Wolken Licht bewolkt 3300 ft
Merendeels bewolkt 4700 ft
Geheel bewolkt 7000 ft
Gevoelstemperatuur -31 °F
Dauwpunt -20 °F
Vochtigheid 84%
Neerslag 0.00 inches
Dikte sneeuw Niet beschikbaar.
12:36 PM 1:41 PM
Afnemende maan, 71% visible
METAR PAKU 171645Z 03005KT 7SM R06/P6000FT -SN SCT033 BKN047 OVC070 M27/M29 A2956

Get Your Daily Forecast Email!

Thanks for signing up!

Be on the lookout for a verification email in your inbox.

You'll start receiving the daily forecast at 8 AM.

×

10-Day Weather Forecast

Almanac

Astronomie

Jan. 17, 2017 Opkomst Ondergang
Werkelijke tijd
Burgerlijke schemering
Nautische schemering
Astronomische schemering
Maan
Golflengte van het zichtbare licht
Daglengte
Tomorrow will be .
, % of the Moon is Illuminated

Extremen vandaag

State Highs State Lows

Community

WunderPhotos

Upload Photos

1,962,540 foto’s ge-upload!

WunderBlog® & News

Nearby

Luchtkwaliteit

  Luchtkwaliteit LK-index Verontreinigende stof
Not available.

Dikte sneeuw

Station Depth Geometrische hoogte

Aardbevingen

Stad Distance Mag. Time & Date
Minimum magnitude displayed is 2.5.

Watertemperatuur langs de kust

Plaats Temperatuur

Stations

Nabije weerstations

Locatie station Temp. Gevoelstemperatuur Dauwpunt Vochtigheid Wind Precip. Hoogte Geactualiseerd Type
                   

Watches & Warnings

There are currently no watches in effect.